Address 0x4afe9786d64f5ec7b47143fb58284d3b363ae48b 12

Txn Hash Method
Block
From
To
Value [Txn Fee]
0x09d065ab049f1cae7dec8e9f4c6763e1a9643c206c54bd1408955277f3eabfb7Transfer29000642022-09-25 14:13:427 days 1 hr ago0x4afe9786d64f5ec7b47143fb58284d3b363ae48bOUT0x5f7a97f624659011157753b452cb97da77664f0b1.7 DEV0.0000525
0xca6441070c02f96854140a31aca7a03f0bd01c55a2248ceb4aa2fb1cde28ec41Burn Loan Asset28893102022-09-23 15:24:189 days 21 mins ago0x4afe9786d64f5ec7b47143fb58284d3b363ae48bOUT0xae9c5011d415bf046461faeb6161dca3772631ba0 DEV0.0001565975
0x1ff03df088295eae8b46815b3d84fe0a86243bbfb13cc2684994c324214b95baMint Loan Asset28893062022-09-23 15:23:309 days 22 mins ago0x4afe9786d64f5ec7b47143fb58284d3b363ae48bOUT0xae9c5011d415bf046461faeb6161dca3772631ba0 DEV0.000159465
0x253e1be1ad5bca7cce17419c2476112e88a7c39a829050269f759219fe69db15Mint Loan Asset28893012022-09-23 15:22:129 days 23 mins ago0x4afe9786d64f5ec7b47143fb58284d3b363ae48bOUT0xae9c5011d415bf046461faeb6161dca3772631ba0 DEV0.000159465
0xa436f617f90d4d0549b0236bead4bbbcd1e8aba7507580472a16fd646e4125f4Withdraw28867982022-09-23 4:49:489 days 10 hrs ago0x4afe9786d64f5ec7b47143fb58284d3b363ae48bOUT0x8d1086e8f323dd7e2ba7f5db5e36e0e703af44f20.01 DEV0.00130897
0x4be1ff66313208226b98a7ecba24aa9da12ba4bb1900b39566b0600ca121399eWithdraw28867922022-09-23 4:48:189 days 10 hrs ago0x4afe9786d64f5ec7b47143fb58284d3b363ae48bOUT0xeb1916c5cce5c93ace9460028d2c962ebf7e5c0b0.01 DEV0.00130909
0x4f605dae1767ed35ceb203823342ed913d5cb4e6ac5d1199884c0994d58e53c2Withdraw28867842022-09-23 4:46:189 days 10 hrs ago0x4afe9786d64f5ec7b47143fb58284d3b363ae48bOUT0x7e96a8a17de6d0df87a3342a71c624b31fd59b080.01 DEV0.0013790975
0x38d6b5e4ab77ccc4c36fc3de105cf5e2ddea72d088d6cf6d920a5b73b3091ed3Withdraw28867752022-09-23 4:44:129 days 11 hrs ago0x4afe9786d64f5ec7b47143fb58284d3b363ae48bOUT0x6f4cc762e655aa30d603802e53dc6940237868120.01 DEV0.00136659
0x0b3ab638500f834ab84f41ab022a62192321422c57450022ed9a6f3baec0b471Withdraw28867692022-09-23 4:42:369 days 11 hrs ago0x4afe9786d64f5ec7b47143fb58284d3b363ae48bOUT0xce47b8ed370480f69802c29b2b7c0c740ac07c810.01 DEV0.00130909
0xfea47ff95f3477c9f94517c65616ad4065c7c679e504ae91f314150ec63283ddWithdraw28867652022-09-23 4:41:369 days 11 hrs ago0x4afe9786d64f5ec7b47143fb58284d3b363ae48bOUT0x0d021ea883b6cf3edcdb877a078685aa8d9fcf850.01 DEV0.00136659
0x30bfe74182caf714620884721f06b498f5b601bdd63c7e18fd2752f506320914Repay Borrow28867392022-09-23 4:35:369 days 11 hrs ago0x4afe9786d64f5ec7b47143fb58284d3b363ae48bOUT0xfd17753da1fa3878943b76b4ba59a018594e1b0e0.01 DEV0.0002923575
0x14c494f9891bba733dac0202bda5bf3b107ab798e155837f5cf0f956182b1e76Approve28867282022-09-23 4:32:549 days 11 hrs ago0x4afe9786d64f5ec7b47143fb58284d3b363ae48bOUT0x393aeb79da0c8143c6c5ace5f7581580daaacb160 DEV0.00011579
0xcb2d7ff15d42401eef07ab715880202fef2772e124ae3dd902b69d34e19a5af9Burn Loan Asset28866812022-09-23 4:20:429 days 11 hrs ago0x4afe9786d64f5ec7b47143fb58284d3b363ae48bOUT0xae9c5011d415bf046461faeb6161dca3772631ba0 DEV0.0001565975
0x6dee93ef7da894e7cb69dff1968913f87fb6d1fdad14603603b5182285e4f750Burn Loan Asset28866702022-09-23 4:17:429 days 11 hrs ago0x4afe9786d64f5ec7b47143fb58284d3b363ae48bOUT0xae9c5011d415bf046461faeb6161dca3772631ba0 DEV0.0001565975
0x6cead1d4347a5d4dcb9ce6530f5eaa7048a6bb69b6d1de646b67248eaec9fb19Mint Loan Asset28866642022-09-23 4:16:249 days 11 hrs ago0x4afe9786d64f5ec7b47143fb58284d3b363ae48bOUT0xae9c5011d415bf046461faeb6161dca3772631ba0 DEV0.000159465
0xc851ec27278a128326b742bce4b00da6b49cecf269f9ab728eb0d41b16c3f4baApprove28866622022-09-23 4:15:429 days 11 hrs ago0x4afe9786d64f5ec7b47143fb58284d3b363ae48bOUT0x40c3c5060bea79f14fea807685d35f0df58182190 DEV0.00011573
0xa702d95f1308fc3d96f7144f3f4acec931f2643f1e5089bd642faebc33b54492Send Tokens To C...28859862022-09-23 1:25:129 days 14 hrs ago0x4afe9786d64f5ec7b47143fb58284d3b363ae48bOUT0x393aeb79da0c8143c6c5ace5f7581580daaacb161 DEV0.000892092
0xa2ed28ca92e82554c7831c2391252c5a575da1c4cb5208c1c147436a27f73476Approve28859832022-09-23 1:24:249 days 14 hrs ago0x4afe9786d64f5ec7b47143fb58284d3b363ae48bOUT0x393aeb79da0c8143c6c5ace5f7581580daaacb160 DEV0.000138876
0x42574709b7f4c5eb3ab7ac032b7b555fae70eb5abede83f6e826bcc69fc2d662Borrow28859752022-09-23 1:22:249 days 14 hrs ago0x4afe9786d64f5ec7b47143fb58284d3b363ae48bOUT0xfd17753da1fa3878943b76b4ba59a018594e1b0e0.01 DEV0.002348586
0xea626ded0d40b7b67e02b4ff738f9d918ac6b5c615835ad3ac60e57bc3914332Deposit28859662022-09-23 1:20:129 days 14 hrs ago0x4afe9786d64f5ec7b47143fb58284d3b363ae48bOUT0x8d1086e8f323dd7e2ba7f5db5e36e0e703af44f20.01 DEV0.000846063
0xbaa30943e69c8d3855e22f1901ce51c24ecd4df09aa60b7fd63be637c54239b1Approve28859622022-09-23 1:19:129 days 14 hrs ago0x4afe9786d64f5ec7b47143fb58284d3b363ae48bOUT0xc4f93e731c90b327c38baebd69bbd7d36eeaa2bf0 DEV0.000138768
0x2790c8255ab2cca905733479c35ef435a3b8dea6796076a9e7169a05df9d7119Deposit28859562022-09-23 1:17:549 days 14 hrs ago0x4afe9786d64f5ec7b47143fb58284d3b363ae48bOUT0x7e96a8a17de6d0df87a3342a71c624b31fd59b080.01 DEV0.000846171
0xc8e60104ec3973d75de0cb42f96dd3965290d64f658f492cb95d21fea6568a16Approve28859522022-09-23 1:17:069 days 14 hrs ago0x4afe9786d64f5ec7b47143fb58284d3b363ae48bOUT0x40c3c5060bea79f14fea807685d35f0df58182190 DEV0.000138876
0xdf73db6a25d14e1ac4f6d7415b4aaabedf7eed6f20eca94cfc41298a668eefcaDeposit28859412022-09-23 1:14:309 days 14 hrs ago0x4afe9786d64f5ec7b47143fb58284d3b363ae48bOUT0xeb1916c5cce5c93ace9460028d2c962ebf7e5c0b0.01 DEV0.000846171
0xfe4e3dbb397189449e507271583575d31501f5f3b51a04a2bef66c0f009c85f1Approve28859382022-09-23 1:13:429 days 14 hrs ago0x4afe9786d64f5ec7b47143fb58284d3b363ae48bOUT0x5f83cf73d2988fd62152c66625a9a565a6979cf80 DEV0.000079176
[ Download CSV Export 
Latest 2 internal transactions
Parent Txn Hash Block From To Value
0x66bdd4f8e9399526a4ead8059753b57d8e490f987ffd5f7801e924784aaeeb8a28860142022-09-23 1:32:009 days 14 hrs ago 0xacbc00e06a10d0bf1e608a3d7fbbbfd8e1450c770x4afe9786d64f5ec7b47143fb58284d3b363ae48b0.849545685785997762 DEV
0x69844e84a915a18075bfcf2f5ca371c082561a1360d8fa3c8370f6c64883d3eb20466302022-04-24 8:01:30161 days 7 hrs ago 0xf5de760f2e916647fd766b4ad9e85ff943ce3a2b0x4afe9786d64f5ec7b47143fb58284d3b363ae48b1 DEV
[ Download CSV Export 
Loading

Contract Name:
0

Compiler Version
0

Optimization Enabled:
0

Other Settings:
-NA-
Block Transaction Gas Used Reward
Age Block Fee Address BC Fee Address Voting Power Jailed Incoming
Block Uncle Number Difficulty Gas Used Reward
Loading